Center — 9HA2615 — position and weather

sailwx.info

Track history (hours):
 
Tides and Currents Weather Stations Pressure Air Temp Water Temp Dewpoint Dewpoint Depression Visibility Wind Speed Wind Dir Waves Ship Positions

Center

Last reported at 2015-Jul-18 15:21 UTC. Time now 2015-Aug-04 15:57 UTC.
Position N 29°39' W 117°33'.
Warning: this ship's position is 17 days out of date.

Length 274 m; draft 9.3 m.

Type: Tanker. MMSI: 215030000.

Date/timePositionNaut miles runAvg speedWind from/ knotsBaromVisibWave heightAir tempDewpointWater temp
2015-Jul-18 15:21N 29°39' W 117°33'2111.5
2015-Jul-18 13:33N 29°57' W 117°46'2411.8
2015-Jul-18 11:33N 30°17' W 117°60'1612.3
2015-Jul-18 10:15N 30°29' W 118°11'812.2
2015-Jul-18 09:34N 30°35' W 118°18'1212.0
2015-Jul-18 08:33N 30°45' W 118°27'1212.0
2015-Jul-18 07:34N 30°54' W 118°35'1212.1
2015-Jul-18 06:32N 31°04' W 118°44'8 7.3
2015-Jul-18 05:25N 31°10' W 118°50'1 0.8
2015-Jul-18 04:29N 31°11' W 118°50'5 5.3
2015-Jul-18 03:33N 31°15' W 118°53'1 0.9
2015-Jul-18 02:24N 31°16' W 118°54'0 0.5
2015-Jul-18 01:30N 31°17' W 118°54'2 1.0
2015-Jul-17 23:32N 31°19' W 118°54'14 0.7
2015-Jul-17 04:12N 31°29' W 119°04'1 1.2
2015-Jul-17 03:31N 31°30' W 119°05'2 1.4
2015-Jul-17 02:20N 31°31' W 119°06'1 1.7
2015-Jul-17 01:30N 31°32' W 119°07'11 2.1
2015-Jul-16 20:29N 31°40' W 119°15'4 4.1
2015-Jul-16 19:25N 31°43' W 119°19'4 4.8
2015-Jul-16 18:33N 31°45' W 119°23'3 1.9
2015-Jul-16 17:07N 31°45' W 119°26'3 5.1
2015-Jul-16 16:33N 31°46' W 119°23'5 1.2
2015-Jul-16 12:23N 31°49' W 119°28'6 4.2
2015-Jul-16 11:05N 31°43' W 119°28'9 0.9
2015-Jul-16 01:04N 31°51' W 119°34'1 1.0
2015-Jul-16 00:28N 31°52' W 119°34'1 0.9
2015-Jul-15 23:31N 31°53' W 119°35'9 1.0
2015-Jul-15 14:31N 32°01' W 119°39'19 1.0
2015-Jul-14 20:22N 32°18' W 119°49'7 8.7
2015-Jul-14 19:33N 32°11' W 119°45'1211.1
2015-Jul-14 18:25N 31°60' W 119°39'1111.4
2015-Jul-14 17:28N 31°50' W 119°35'4 1.4
2015-Jul-14 14:25N 31°45' W 119°33'2 0.9
2015-Jul-14 12:07N 31°47' W 119°34'1 1.0
2015-Jul-14 11:31N 31°48' W 119°34'1 1.1
2015-Jul-14 10:28N 31°49' W 119°35'1 1.1
2015-Jul-14 09:31N 31°50' W 119°35'3 1.2
2015-Jul-14 07:25N 31°53' W 119°35'  
2015-Jul-09 00:31N 31°49' W 119°42'1110.9
2015-Jul-08 23:31N 31°40' W 119°34'1310.9
2015-Jul-08 22:21N 31°30' W 119°26'2 3.0
2015-Jul-08 21:31N 31°28' W 119°24'2 0.8
2015-Jul-08 19:33N 31°30' W 119°24'  
Track history (hours):
 
Tides and Currents Weather Stations Pressure Air Temp Water Temp Dewpoint Dewpoint Depression Visibility Wind Speed Wind Dir Waves Ship Positions

Center

Last reported at 2015-Jul-18 15:21 UTC. Time now 2015-Aug-04 15:57 UTC.
Position N 29°39' W 117°33'.
Warning: this ship's position is 17 days out of date.

Length 274 m; draft 9.3 m.

Type: Tanker. MMSI: 215030000.

Date/timePositionNaut miles runAvg speedWind from/ knotsBaromVisibWave heightAir tempDewpointWater temp
2015-Jul-18 15:21N 29°39' W 117°33'2111.5
2015-Jul-18 13:33N 29°57' W 117°46'2411.8
2015-Jul-18 11:33N 30°17' W 117°60'1612.3
2015-Jul-18 10:15N 30°29' W 118°11'812.2
2015-Jul-18 09:34N 30°35' W 118°18'1212.0
2015-Jul-18 08:33N 30°45' W 118°27'1212.0
2015-Jul-18 07:34N 30°54' W 118°35'1212.1
2015-Jul-18 06:32N 31°04' W 118°44'8 7.3
2015-Jul-18 05:25N 31°10' W 118°50'1 0.8
2015-Jul-18 04:29N 31°11' W 118°50'5 5.3
2015-Jul-18 03:33N 31°15' W 118°53'1 0.9
2015-Jul-18 02:24N 31°16' W 118°54'0 0.5
2015-Jul-18 01:30N 31°17' W 118°54'2 1.0
2015-Jul-17 23:32N 31°19' W 118°54'14 0.7
2015-Jul-17 04:12N 31°29' W 119°04'1 1.2
2015-Jul-17 03:31N 31°30' W 119°05'2 1.4
2015-Jul-17 02:20N 31°31' W 119°06'1 1.7
2015-Jul-17 01:30N 31°32' W 119°07'11 2.1
2015-Jul-16 20:29N 31°40' W 119°15'4 4.1
2015-Jul-16 19:25N 31°43' W 119°19'4 4.8
2015-Jul-16 18:33N 31°45' W 119°23'3 1.9
2015-Jul-16 17:07N 31°45' W 119°26'3 5.1
2015-Jul-16 16:33N 31°46' W 119°23'5 1.2
2015-Jul-16 12:23N 31°49' W 119°28'6 4.2
2015-Jul-16 11:05N 31°43' W 119°28'9 0.9
2015-Jul-16 01:04N 31°51' W 119°34'1 1.0
2015-Jul-16 00:28N 31°52' W 119°34'1 0.9
2015-Jul-15 23:31N 31°53' W 119°35'9 1.0
2015-Jul-15 14:31N 32°01' W 119°39'19 1.0
2015-Jul-14 20:22N 32°18' W 119°49'7 8.7
2015-Jul-14 19:33N 32°11' W 119°45'1211.1
2015-Jul-14 18:25N 31°60' W 119°39'1111.4
2015-Jul-14 17:28N 31°50' W 119°35'4 1.4
2015-Jul-14 14:25N 31°45' W 119°33'2 0.9
2015-Jul-14 12:07N 31°47' W 119°34'1 1.0
2015-Jul-14 11:31N 31°48' W 119°34'1 1.1
2015-Jul-14 10:28N 31°49' W 119°35'1 1.1
2015-Jul-14 09:31N 31°50' W 119°35'3 1.2
2015-Jul-14 07:25N 31°53' W 119°35'  
2015-Jul-09 00:31N 31°49' W 119°42'1110.9
2015-Jul-08 23:31N 31°40' W 119°34'1310.9
2015-Jul-08 22:21N 31°30' W 119°26'2 3.0
2015-Jul-08 21:31N 31°28' W 119°24'2 0.8
2015-Jul-08 19:33N 31°30' W 119°24'  

Dump ship's entire track history